createdAt,value
2024-03-06T00:00:06.456Z,42.67
2024-03-06T00:05:09.606Z,46.40
2024-03-06T00:10:11.798Z,45.88
2024-03-06T00:15:13.747Z,38.60
2024-03-06T00:20:15.792Z,39.60
2024-03-06T00:25:17.723Z,35.15
2024-03-06T00:30:19.738Z,38.97
2024-03-06T00:35:21.660Z,34.22
2024-03-06T00:40:23.513Z,36.13
2024-03-06T00:45:25.648Z,38.05
2024-03-06T00:50:27.474Z,38.20
2024-03-06T00:55:29.343Z,41.72
2024-03-06T01:00:31.574Z,41.63
2024-03-06T01:05:33.617Z,39.83
2024-03-06T01:10:35.517Z,36.00
2024-03-06T01:15:39.831Z,44.90
2024-03-06T01:20:41.648Z,34.25
2024-03-06T01:25:43.493Z,33.78
2024-03-06T01:30:45.305Z,37.60
2024-03-06T01:35:47.097Z,36.85
2024-03-06T01:40:49.079Z,36.58
2024-03-06T01:45:51.500Z,34.10
2024-03-06T01:50:56.724Z,42.40
2024-03-06T01:55:59.009Z,42.67
2024-03-06T02:01:01.250Z,47.28
2024-03-06T02:06:05.522Z,42.35
2024-03-06T02:11:08.376Z,48.92
2024-03-06T02:16:13.364Z,49.75
2024-03-06T02:21:15.690Z,46.65
2024-03-06T02:26:17.921Z,46.63
2024-03-06T02:31:20.858Z,46.35
2024-03-06T02:36:23.042Z,44.63
2024-03-06T02:41:24.864Z,41.58
2024-03-06T02:46:26.970Z,47.53
2024-03-06T02:51:28.829Z,43.03
2024-03-06T02:56:30.624Z,40.88
2024-03-06T03:01:32.616Z,47.55
2024-03-06T03:06:34.603Z,38.42
2024-03-06T03:11:36.992Z,38.47
2024-03-06T03:16:38.861Z,35.03
2024-03-06T03:21:44.704Z,40.85
2024-03-06T03:26:46.496Z,38.05
2024-03-06T03:31:48.482Z,34.75
2024-03-06T03:36:50.324Z,35.72
2024-03-06T03:41:52.324Z,39.47
2024-03-06T03:46:54.205Z,36.22
2024-03-06T03:51:56.176Z,39.88
2024-03-06T03:57:00.179Z,41.88
2024-03-06T04:02:02.037Z,40.97
2024-03-06T04:07:03.981Z,33.35
2024-03-06T04:12:06.155Z,32.47
2024-03-06T04:17:08.170Z,32.83
2024-03-06T04:22:10.107Z,39.80
2024-03-06T04:27:12.087Z,42.53
2024-03-06T04:32:13.925Z,41.53
2024-03-06T04:37:15.873Z,41.65
2024-03-06T04:42:17.732Z,41.45
2024-03-06T04:47:20.406Z,45.58
2024-03-06T04:52:22.241Z,43.70
2024-03-06T04:57:24.088Z,42.40
2024-03-06T05:02:28.709Z,40.72
2024-03-06T06:00:50.650Z,49.17
2024-03-06T06:05:52.576Z,66.20
2024-03-06T06:10:56.050Z,58.10
2024-03-06T06:16:03.845Z,55.53
2024-03-06T06:21:08.517Z,55.00
2024-03-06T06:26:11.693Z,59.45
2024-03-06T06:31:13.776Z,65.50
2024-03-06T06:36:15.677Z,62.00
2024-03-06T06:41:18.725Z,60.45
2024-03-06T06:46:22.222Z,58.50
2024-03-06T06:51:24.675Z,54.22
2024-03-06T06:56:27.079Z,52.60
2024-03-06T07:01:29.054Z,51.55
2024-03-06T07:06:30.952Z,56.83
2024-03-06T07:11:32.777Z,57.28
2024-03-06T07:16:34.628Z,61.28
2024-03-06T07:21:37.029Z,105.70
2024-03-06T07:26:38.966Z,63.03
2024-03-06T07:31:42.178Z,57.05
2024-03-06T07:36:44.007Z,54.40
2024-03-06T07:41:45.885Z,57.50
2024-03-06T07:46:47.882Z,53.72
2024-03-06T07:51:49.959Z,43.50
2024-03-06T07:56:52.264Z,49.55
2024-03-06T08:01:54.183Z,47.97
2024-03-06T08:06:55.981Z,47.83
2024-03-06T08:11:57.862Z,45.38
2024-03-06T08:16:59.768Z,39.72
2024-03-06T08:22:05.552Z,45.65
2024-03-06T08:27:08.725Z,42.03
2024-03-06T08:32:10.606Z,40.22
2024-03-06T08:37:14.003Z,42.35
2024-03-06T08:42:19.589Z,40.23
2024-03-06T08:47:21.548Z,45.35
2024-03-06T08:52:23.445Z,37.25
2024-03-06T08:57:27.585Z,35.78
2024-03-06T09:02:29.651Z,32.38
2024-03-06T09:07:31.503Z,33.58
2024-03-06T09:12:33.674Z,34.97
2024-03-06T09:17:35.857Z,34.30
2024-03-06T09:22:39.079Z,31.55
2024-03-06T09:27:40.888Z,31.80
2024-03-06T09:32:44.957Z,33.17
2024-03-06T09:37:47.589Z,35.85
2024-03-06T09:42:53.036Z,37.90
2024-03-06T09:47:55.379Z,33.47
2024-03-06T09:52:57.762Z,37.38
2024-03-06T09:58:00.132Z,33.83
2024-03-06T10:03:09.068Z,32.38
2024-03-06T10:08:10.993Z,32.78
2024-03-06T10:13:12.847Z,35.33
2024-03-06T10:18:16.781Z,36.70
2024-03-06T10:23:19.924Z,36.47
2024-03-06T10:28:23.998Z,38.75
2024-03-06T10:33:27.867Z,37.60
2024-03-06T10:38:37.138Z,35.92
2024-03-06T10:43:40.957Z,38.08
2024-03-06T10:48:45.846Z,30.23
2024-03-06T10:53:49.745Z,34.88
2024-03-06T10:58:53.233Z,31.95
2024-03-06T11:03:55.991Z,31.40
2024-03-06T11:08:57.834Z,31.20
2024-03-06T11:14:05.329Z,32.28
2024-03-06T11:19:08.816Z,31.38
2024-03-06T11:24:20.430Z,29.63
2024-03-06T11:29:22.601Z,27.35
2024-03-06T11:34:25.670Z,26.92
2024-03-06T11:39:35.172Z,26.98
2024-03-06T11:44:37.985Z,24.42
2024-03-06T11:49:41.596Z,27.20
2024-03-06T11:54:44.188Z,21.80
2024-03-06T11:59:46.088Z,22.27
2024-03-06T12:04:47.934Z,23.65
2024-03-06T12:09:49.806Z,21.73
2024-03-06T12:15:05.158Z,22.98
2024-03-06T12:20:13.649Z,26.55
2024-03-06T12:25:23.280Z,62.80
2024-03-06T12:30:25.167Z,29.00
2024-03-06T12:35:27.606Z,30.10
2024-03-06T12:40:29.684Z,32.85
2024-03-06T12:45:31.657Z,24.23
2024-03-06T12:50:33.869Z,27.95
2024-03-06T12:55:36.689Z,25.70
2024-03-06T13:00:38.973Z,25.98
2024-03-06T13:05:41.575Z,31.65
2024-03-06T13:10:43.971Z,25.63
2024-03-06T13:15:47.432Z,27.83
2024-03-06T13:20:50.066Z,25.50
2024-03-06T13:25:51.987Z,30.85
2024-03-06T13:30:53.851Z,29.77
2024-03-06T13:35:56.966Z,39.95
2024-03-06T13:40:59.099Z,22.13
2024-03-06T13:46:01.067Z,22.48
2024-03-06T13:51:03.141Z,23.23
2024-03-06T13:56:05.486Z,25.10
2024-03-06T14:01:07.522Z,21.33
2024-03-06T14:06:10.797Z,23.73
2024-03-06T14:11:12.926Z,26.30
2024-03-06T14:16:14.892Z,27.92
2024-03-06T14:21:16.798Z,22.52
2024-03-06T14:26:18.744Z,20.02
2024-03-06T14:31:20.590Z,24.27
2024-03-06T14:36:26.424Z,21.73
2024-03-06T14:41:28.363Z,21.73
2024-03-06T14:46:30.435Z,22.27
2024-03-06T14:51:32.309Z,23.77
2024-03-06T14:56:34.272Z,27.52
2024-03-06T15:01:38.168Z,36.20
2024-03-06T15:06:40.633Z,33.45
2024-03-06T15:11:42.616Z,24.13
2024-03-06T15:16:45.514Z,26.23
2024-03-06T15:21:47.395Z,25.25
2024-03-06T15:26:49.274Z,23.98
2024-03-06T15:31:51.113Z,52.28
2024-03-06T15:36:55.255Z,59.53
2024-03-06T15:41:58.827Z,27.13
2024-03-06T15:47:06.988Z,27.73
2024-03-06T15:52:13.034Z,28.20
2024-03-06T15:57:19.375Z,30.20
2024-03-06T16:02:21.397Z,23.42
2024-03-06T16:07:23.437Z,23.70
2024-03-06T16:12:25.532Z,30.13
2024-03-06T16:17:27.773Z,34.15
2024-03-06T16:22:29.726Z,28.10
2024-03-06T16:27:31.562Z,31.50
2024-03-06T16:32:33.408Z,33.72
2024-03-06T16:37:36.085Z,29.38
2024-03-06T16:42:37.890Z,23.50
2024-03-06T16:47:39.819Z,24.45
2024-03-06T16:52:42.529Z,31.25
2024-03-06T16:57:44.466Z,26.45
2024-03-06T17:02:46.511Z,23.23
2024-03-06T17:07:49.194Z,37.78
2024-03-06T17:12:51.059Z,46.42
2024-03-06T17:17:53.083Z,26.05
2024-03-06T17:22:56.836Z,25.92
2024-03-06T17:27:58.912Z,25.40
2024-03-06T17:33:02.938Z,25.95
2024-03-06T17:43:06.989Z,29.92
2024-03-06T17:48:09.258Z,25.45
2024-03-06T17:53:11.277Z,24.20
2024-03-06T17:58:13.399Z,28.88
2024-03-06T18:03:15.327Z,32.45
2024-03-06T18:08:18.045Z,31.08
2024-03-06T18:13:20.128Z,33.53
2024-03-06T18:18:22.045Z,29.83
2024-03-06T18:23:26.092Z,27.25
2024-03-06T18:28:28.096Z,32.40
2024-03-06T18:33:30.032Z,39.08
2024-03-06T18:38:34.891Z,40.08
2024-03-06T18:43:36.673Z,35.45
2024-03-06T18:48:38.528Z,32.83
2024-03-06T18:53:40.432Z,33.33
2024-03-06T18:58:42.279Z,34.17
2024-03-06T19:03:44.175Z,34.53
2024-03-06T19:08:47.685Z,37.80
2024-03-06T19:13:49.601Z,34.37
2024-03-06T19:18:51.516Z,32.92
2024-03-06T19:23:53.424Z,34.78
2024-03-06T19:28:55.318Z,34.50
2024-03-06T19:33:57.251Z,38.50
2024-03-06T19:38:59.370Z,34.97
2024-03-06T19:44:01.210Z,36.47
2024-03-06T19:49:03.008Z,35.25
2024-03-06T19:54:06.481Z,39.45
2024-03-06T19:59:08.903Z,35.53
2024-03-06T20:04:10.793Z,36.33
2024-03-06T20:09:14.954Z,36.03
2024-03-06T20:14:17.137Z,34.85
2024-03-06T20:19:19.116Z,35.28
2024-03-06T20:24:21.441Z,34.63
2024-03-06T20:29:23.802Z,36.67
2024-03-06T20:34:25.699Z,35.00
2024-03-06T20:39:27.708Z,35.00
2024-03-06T20:44:29.538Z,33.85
2024-03-06T20:49:31.658Z,33.75
2024-03-06T20:54:34.426Z,37.13
2024-03-06T20:59:36.296Z,34.05
2024-03-06T21:04:38.273Z,40.03
2024-03-06T21:09:40.237Z,38.67
2024-03-06T21:14:42.176Z,37.25
2024-03-06T21:19:44.101Z,37.35
2024-03-06T21:24:45.914Z,37.92
2024-03-06T21:29:50.925Z,34.63
2024-03-06T21:34:52.780Z,39.53
2024-03-06T21:39:54.608Z,37.22
2024-03-06T21:44:56.562Z,36.10
2024-03-06T21:49:58.444Z,41.90
2024-03-06T21:55:00.511Z,45.17
2024-03-06T22:00:02.374Z,35.10
2024-03-06T22:10:10.109Z,30.23
2024-03-06T22:15:12.101Z,29.30
2024-03-06T22:20:14.027Z,27.70
2024-03-06T22:25:16.045Z,26.77
2024-03-06T22:30:18.092Z,26.83
2024-03-06T22:35:21.089Z,26.33
2024-03-06T22:40:22.937Z,25.67
2024-03-06T22:45:27.554Z,24.58
2024-03-06T22:50:29.507Z,29.15
2024-03-06T22:55:33.459Z,25.15
2024-03-06T23:00:39.403Z,29.30
2024-03-06T23:05:43.672Z,27.35
2024-03-06T23:10:45.671Z,33.47
2024-03-06T23:15:47.682Z,31.58
2024-03-06T23:20:50.012Z,28.23
2024-03-06T23:25:52.061Z,26.40
2024-03-06T23:30:53.879Z,30.40
2024-03-06T23:35:55.882Z,32.40
2024-03-06T23:40:57.860Z,26.13
2024-03-06T23:45:59.827Z,29.85
2024-03-06T23:51:01.764Z,25.95
2024-03-06T23:56:03.851Z,24.33
